Time;durP1;ratioP1;P1;durP2;ratioP2;P2;SDS_P1;SDS_P2;PMS_P1;PMS_P2;Temp;Humidity;BMP_temperature;BMP_pressure;BME280_temperature;BME280_humidity;BME280_pressure;Samples;Min_cycle;Max_cycle;Signal;HPM_P1;HPM_P2
2022/12/26 00:01:20;;;;;;;10.40;7.67;;;9.40;1.00;;;;;;4885295;29;20480;-80
2022/12/26 00:03:50;;;;;;;9.73;7.73;;;9.50;1.00;;;;;;4889478;29;20536;-81
2022/12/26 00:06:20;;;;;;;10.67;7.93;;;9.50;1.00;;;;;;4888805;29;20938;-80
2022/12/26 00:08:47;;;;;;;8.00;7.20;;;9.60;1.00;;;;;;4875294;29;21414;-82
2022/12/26 00:11:18;;;;;;;11.77;7.30;;;9.50;1.00;;;;;;4900010;29;21329;-81
2022/12/26 00:13:46;;;;;;;8.13;6.93;;;9.50;1.00;;;;;;4889632;29;20464;-79
2022/12/26 00:16:15;;;;;;;9.60;7.20;;;9.50;1.00;;;;;;4888089;29;20624;-80
2022/12/26 00:18:45;;;;;;;10.50;7.33;;;9.60;1.00;;;;;;4895433;29;20495;-80
2022/12/26 00:21:25;;;;;;;9.83;8.10;;;9.60;1.00;;;;;;4889714;29;20435;-80
2022/12/26 00:23:55;;;;;;;10.30;7.00;;;9.60;1.00;;;;;;4885108;29;20460;-79
2022/12/26 00:26:27;;;;;;;7.60;6.67;;;9.60;1.00;;;;;;4891888;29;20444;-80
2022/12/26 00:28:56;;;;;;;9.10;7.30;;;9.60;1.00;;;;;;4874551;29;20413;-81
2022/12/26 00:31:25;;;;;;;9.40;7.20;;;9.60;1.00;;;;;;4889689;29;20439;-83
2022/12/26 00:33:54;;;;;;;9.30;8.00;;;9.60;1.00;;;;;;4899293;29;20435;-80
2022/12/26 00:36:29;;;;;;;9.37;6.30;;;9.70;1.00;;;;;;4883692;29;20537;-82
2022/12/26 00:38:57;;;;;;;9.30;7.17;;;9.70;1.00;;;;;;4871734;29;20470;-82
2022/12/26 00:41:47;;;;;;;9.07;7.20;;;9.70;1.00;;;;;;4884102;29;20486;-81
2022/12/26 00:44:14;;;;;;;8.03;6.73;;;9.70;1.00;;;;;;4881976;29;20457;-81
2022/12/26 00:46:47;;;;;;;8.27;6.70;;;9.70;1.00;;;;;;4889978;29;20453;-80
2022/12/26 00:49:14;;;;;;;10.60;6.80;;;9.70;1.00;;;;;;4888966;29;20424;-82
2022/12/26 00:51:45;;;;;;;10.30;7.73;;;9.80;1.00;;;;;;4888728;29;20456;-82
2022/12/26 00:54:12;;;;;;;8.20;6.50;;;9.80;1.00;;;;;;4894296;29;20452;-81
2022/12/26 00:56:40;;;;;;;9.83;6.87;;;9.70;1.00;;;;;;4886693;29;20557;-80
2022/12/26 00:59:07;;;;;;;8.47;6.40;;;9.80;1.00;;;;;;4886427;29;20463;-80
2022/12/26 01:01:36;;;;;;;8.30;6.80;;;9.80;1.00;;;;;;4882627;29;20583;-80
2022/12/26 01:04:05;;;;;;;7.90;6.37;;;9.80;1.00;;;;;;4877354;29;21265;-80
2022/12/26 01:06:33;;;;;;;8.33;6.40;;;9.80;1.00;;;;;;4898802;29;20551;-79
2022/12/26 01:09:10;;;;;;;9.47;6.80;;;9.80;1.00;;;;;;4875986;29;20599;-79
2022/12/26 01:11:40;;;;;;;8.30;6.40;;;9.80;1.00;;;;;;4896944;29;20476;-79
2022/12/26 01:14:10;;;;;;;8.77;6.00;;;9.80;1.00;;;;;;4877254;29;21004;-80
2022/12/26 01:16:37;;;;;;;8.17;6.83;;;9.80;1.00;;;;;;4901013;29;20472;-80
2022/12/26 01:19:05;;;;;;;8.40;7.03;;;9.80;1.00;;;;;;4895703;29;20460;-79
2022/12/26 01:21:32;;;;;;;8.90;5.70;;;9.70;1.00;;;;;;4893180;29;21261;-81
2022/12/26 01:23:58;;;;;;;7.30;6.00;;;9.70;1.00;;;;;;4883081;29;20521;-80
2022/12/26 01:26:27;;;;;;;10.13;6.40;;;9.80;1.00;;;;;;4894215;29;20473;-79
2022/12/26 01:28:55;;;;;;;7.80;6.40;;;9.70;1.00;;;;;;4891191;29;20497;-81
2022/12/26 01:31:24;;;;;;;6.63;5.60;;;9.70;1.00;;;;;;4895358;29;20486;-80
2022/12/26 01:33:51;;;;;;;7.93;5.90;;;9.70;1.00;;;;;;4871632;29;20490;-80
2022/12/26 01:36:20;;;;;;;7.10;6.37;;;9.80;1.00;;;;;;4890297;29;20498;-80
2022/12/26 01:38:47;;;;;;;9.37;6.70;;;9.80;1.00;;;;;;4876595;29;20461;-82
2022/12/26 01:41:18;;;;;;;8.17;6.60;;;9.70;1.00;;;;;;4891375;29;21327;-79
2022/12/26 01:43:51;;;;;;;8.60;6.20;;;9.80;1.00;;;;;;4890597;29;20440;-81
2022/12/26 01:46:21;;;;;;;7.97;5.90;;;9.70;1.00;;;;;;4888273;29;20434;-81
2022/12/26 01:48:49;;;;;;;6.93;6.23;;;9.70;1.00;;;;;;4883495;29;20568;-81
2022/12/26 01:51:18;;;;;;;9.30;7.67;;;9.70;1.00;;;;;;4884379;29;20566;-84
2022/12/26 01:53:47;;;;;;;10.00;6.73;;;9.70;1.00;;;;;;4890113;29;20591;-82
2022/12/26 01:56:21;;;;;;;8.47;6.60;;;9.70;1.00;;;;;;4887993;29;20459;-83
2022/12/26 01:58:53;;;;;;;6.80;5.40;;;9.70;1.00;;;;;;4892837;29;20484;-79
2022/12/26 02:01:22;;;;;;;9.80;6.17;;;9.60;1.00;;;;;;4892868;29;20575;-82
2022/12/26 02:06:34;;;;;;;7.13;5.87;;;9.60;1.00;;;;;;4895912;29;20464;-79
2022/12/26 02:09:02;;;;;;;10.53;6.07;;;9.60;1.00;;;;;;4894692;29;20559;-80
2022/12/26 02:11:35;;;;;;;6.97;5.93;;;9.60;1.00;;;;;;4895077;29;20484;-79
2022/12/26 02:14:06;;;;;;;6.20;5.27;;;9.60;1.00;;;;;;4895011;29;20552;-80
2022/12/26 02:16:34;;;;;;;7.83;5.73;;;9.60;1.00;;;;;;4898864;29;21984;-81
2022/12/26 02:19:01;;;;;;;7.33;6.03;;;9.60;1.00;;;;;;4894197;29;20530;-81
2022/12/26 02:21:57;;;;;;;7.23;6.27;;;9.70;1.00;;;;;;4896910;29;20525;-83
2022/12/26 02:24:46;;;;;;;9.53;5.97;;;9.70;1.00;;;;;;4895604;29;20499;-82
2022/12/26 02:27:37;;;;;;;8.40;5.87;;;9.70;1.00;;;;;;4889037;29;20472;-79
2022/12/26 02:30:28;;;;;;;8.37;5.60;;;9.70;1.00;;;;;;4876985;29;21016;-83
2022/12/26 02:33:18;;;;;;;10.90;6.37;;;9.70;1.00;;;;;;4880674;29;20493;-82
2022/12/26 02:35:59;;;;;;;6.70;5.60;;;9.70;1.00;;;;;;4891765;29;20496;-84
2022/12/26 02:38:46;;;;;;;7.47;5.73;;;9.80;1.00;;;;;;4903172;29;20428;-82
2022/12/26 02:41:30;;;;;;;9.70;6.10;;;9.80;1.00;;;;;;4892505;29;20428;-81
2022/12/26 02:47:10;;;;;;;7.77;6.40;;;9.80;1.00;;;;;;4891889;29;20566;-82
2022/12/26 03:13:11;;;;;;;8.20;5.80;;;10.00;1.00;;;;;;4900330;29;20487;-81
2022/12/26 03:18:34;;;;;;;7.63;5.40;;;10.00;1.00;;;;;;4899283;29;21050;-82
2022/12/26 03:21:03;;;;;;;6.90;6.20;;;10.00;1.00;;;;;;4899753;29;20455;-81
2022/12/26 03:23:32;;;;;;;6.77;6.07;;;10.00;1.00;;;;;;4898658;29;20484;-81
2022/12/26 03:30:47;;;;;;;5.90;4.70;;;10.00;1.00;;;;;;4900015;29;20492;-82
2022/12/26 03:31:42;;;;;;;7.50;6.03;;;10.00;1.00;;;;;;4897207;29;20465;-83
2022/12/26 03:34:18;;;;;;;9.13;5.50;;;10.10;1.00;;;;;;4897502;29;20432;-80
2022/12/26 03:37:18;;;;;;;6.30;5.57;;;10.10;1.00;;;;;;4897521;29;20468;-81
2022/12/26 04:20:02;;;;;;;6.97;5.47;;;10.40;1.00;;;;;;4897680;29;20469;-81
2022/12/26 04:45:25;;;;;;;7.10;5.23;;;10.60;1.00;;;;;;4897733;29;20465;-80
2022/12/26 04:50:33;;;;;;;6.27;5.30;;;10.60;1.00;;;;;;4866359;29;20453;-82
2022/12/26 04:53:03;;;;;;;11.37;5.27;;;10.70;1.00;;;;;;4898656;29;21316;-79
2022/12/26 04:55:34;;;;;;;6.60;5.27;;;10.60;1.00;;;;;;4898502;29;20428;-79
2022/12/26 04:58:07;;;;;;;5.90;4.40;;;10.70;1.00;;;;;;4894761;29;21772;-81
2022/12/26 05:00:36;;;;;;;6.00;5.33;;;10.70;1.00;;;;;;4899472;29;21369;-79
2022/12/26 05:11:22;;;;;;;6.00;4.60;;;10.90;1.00;;;;;;4893813;29;21212;-82
2022/12/26 05:13:51;;;;;;;6.00;4.37;;;10.90;1.00;;;;;;4893705;29;20563;-80
2022/12/26 05:30:08;;;;;;;7.63;4.80;;;10.90;1.00;;;;;;4894450;29;20421;-80
2022/12/26 05:35:23;;;;;;;5.10;4.37;;;11.00;1.00;;;;;;4898908;29;20425;-79
2022/12/26 05:37:52;;;;;;;7.10;4.70;;;11.00;1.00;;;;;;4897663;29;20444;-79
2022/12/26 05:40:19;;;;;;;5.00;4.50;;;11.00;1.00;;;;;;4901149;29;20472;-82
2022/12/26 05:42:46;;;;;;;5.30;4.40;;;11.00;1.00;;;;;;4890928;29;20431;-84
2022/12/26 05:45:20;;;;;;;7.00;5.30;;;11.00;1.00;;;;;;4902766;29;20526;-84
2022/12/26 05:47:48;;;;;;;6.63;4.90;;;10.90;1.00;;;;;;4900451;29;20463;-82
2022/12/26 05:50:16;;;;;;;7.30;4.63;;;10.90;1.00;;;;;;4901072;29;20527;-81
2022/12/26 05:52:46;;;;;;;6.00;4.93;;;10.90;1.00;;;;;;4903442;29;20440;-80
2022/12/26 05:55:26;;;;;;;5.13;4.33;;;10.90;1.00;;;;;;4898292;29;20482;-82
2022/12/26 05:57:53;;;;;;;7.00;4.30;;;11.00;1.00;;;;;;4899941;29;20466;-81
2022/12/26 06:00:24;;;;;;;5.00;4.20;;;11.00;1.00;;;;;;4904363;29;20449;-80
2022/12/26 06:02:53;;;;;;;5.57;4.30;;;10.90;1.00;;;;;;4902524;29;20471;-80
2022/12/26 06:05:24;;;;;;;6.20;4.20;;;11.00;1.00;;;;;;4901802;29;20441;-80
2022/12/26 06:07:54;;;;;;;5.30;4.50;;;11.00;1.00;;;;;;4904730;29;20531;-82
2022/12/26 06:10:25;;;;;;;8.57;5.00;;;11.00;1.00;;;;;;4902903;29;20496;-81
2022/12/26 06:12:54;;;;;;;6.20;4.83;;;11.10;1.00;;;;;;4901133;29;20468;-83
2022/12/26 06:21:12;;;;;;;5.27;4.10;;;11.20;1.00;;;;;;4894571;28;20459;-90
2022/12/26 06:24:13;;;;;;;4.90;4.10;;;11.20;1.00;;;;;;4928193;29;20478;-91
2022/12/26 06:46:02;;;;;;;5.27;4.27;;;11.20;1.00;;;;;;4799178;29;20561;-92
2022/12/26 06:52:24;;;;;;;6.47;4.40;;;11.20;1.00;;;;;;4794456;29;20446;-91
2022/12/26 06:55:04;;;;;;;5.63;4.47;;;11.10;1.00;;;;;;4862298;29;20477;-92
2022/12/26 07:01:16;;;;;;;6.20;4.53;;;11.20;1.00;;;;;;4894599;29;20455;-91
2022/12/26 07:08:05;;;;;;;4.80;3.73;;;11.20;1.00;;;;;;4817954;29;20448;-92
2022/12/26 07:14:34;;;;;;;;;;;;;;;;;;;;;
2022/12/26 07:17:27;;;;;;;;;;;;;;;;;;;;;
2022/12/26 07:52:56;;;;;;;6.90;4.17;;;11.10;1.00;;;;;;5167663;22;20576;-83
2022/12/26 07:55:26;;;;;;;5.20;4.17;;;11.10;1.00;;;;;;5096131;27;20423;-81
2022/12/26 07:57:55;;;;;;;5.53;3.87;;;11.10;1.00;;;;;;5087354;27;20455;-82
2022/12/26 08:00:23;;;;;;;6.60;3.87;;;11.10;1.00;;;;;;5084885;27;20549;-82
2022/12/26 08:02:51;;;;;;;5.40;3.90;;;11.20;1.00;;;;;;5078773;27;20485;-82
2022/12/26 08:05:19;;;;;;;5.17;3.40;;;11.20;1.00;;;;;;5090092;28;20461;-81
2022/12/26 08:07:47;;;;;;;6.67;4.10;;;11.20;1.00;;;;;;5087612;28;20515;-83
2022/12/26 08:10:16;;;;;;;7.30;3.90;;;11.30;1.00;;;;;;5094373;28;20912;-80
2022/12/26 08:12:45;;;;;;;5.50;3.77;;;11.30;1.00;;;;;;5089694;27;20512;-82
2022/12/26 08:15:13;;;;;;;5.40;4.07;;;11.30;1.00;;;;;;5085773;28;20446;-82
2022/12/26 08:17:40;;;;;;;4.80;3.60;;;11.30;1.00;;;;;;5086560;28;20458;-82
2022/12/26 08:20:07;;;;;;;5.73;3.80;;;11.30;1.00;;;;;;5091068;28;20479;-81
2022/12/26 08:22:34;;;;;;;5.10;3.60;;;11.30;1.00;;;;;;5088190;27;20469;-81
2022/12/26 08:25:03;;;;;;;5.70;3.30;;;11.40;1.00;;;;;;5087334;28;20455;-81
2022/12/26 08:27:32;;;;;;;5.07;4.10;;;11.30;1.00;;;;;;5084867;28;20473;-81
2022/12/26 08:29:59;;;;;;;7.27;4.00;;;11.30;1.00;;;;;;5087395;28;20886;-78
2022/12/26 08:32:26;;;;;;;5.17;4.20;;;11.30;1.00;;;;;;5092156;28;20478;-78
2022/12/26 08:34:53;;;;;;;5.40;4.10;;;11.40;1.00;;;;;;5089605;28;20431;-78
2022/12/26 08:37:20;;;;;;;5.40;3.90;;;11.40;1.00;;;;;;5083749;28;20481;-78
2022/12/26 08:39:47;;;;;;;4.60;3.50;;;11.30;1.00;;;;;;5089124;28;20419;-79
2022/12/26 08:42:14;;;;;;;5.30;3.80;;;11.40;1.00;;;;;;5087951;28;20536;-77
2022/12/26 08:44:43;;;;;;;5.60;3.33;;;11.40;1.00;;;;;;5089921;28;20470;-77
2022/12/26 08:47:10;;;;;;;5.93;3.43;;;11.40;1.00;;;;;;5088153;28;20447;-79
2022/12/26 08:49:37;;;;;;;4.97;3.67;;;11.50;1.00;;;;;;5083202;28;20463;-79
2022/12/26 08:52:07;;;;;;;5.10;3.40;;;11.50;1.00;;;;;;5087289;28;20478;-79
2022/12/26 08:54:34;;;;;;;4.60;3.73;;;11.50;1.00;;;;;;5085411;28;20466;-79
2022/12/26 08:57:01;;;;;;;5.57;3.53;;;11.50;1.00;;;;;;5101514;27;20467;-78
2022/12/26 08:59:28;;;;;;;7.90;3.93;;;11.50;1.00;;;;;;5091054;28;20463;-80
2022/12/26 09:01:56;;;;;;;4.50;3.40;;;11.50;1.00;;;;;;5087521;28;20475;-78
2022/12/26 09:04:25;;;;;;;5.37;3.93;;;11.50;1.00;;;;;;5078170;28;20529;-77
2022/12/26 09:06:52;;;;;;;6.30;4.27;;;11.50;1.00;;;;;;5077598;28;20470;-78
2022/12/26 09:09:19;;;;;;;5.87;3.90;;;11.50;1.00;;;;;;5073371;28;20448;-78
2022/12/26 09:11:47;;;;;;;5.33;4.03;;;11.40;1.00;;;;;;5071422;28;20501;-79
2022/12/26 09:14:14;;;;;;;5.50;4.90;;;11.50;1.00;;;;;;5071445;28;20455;-78
2022/12/26 09:16:45;;;;;;;5.33;4.20;;;11.50;1.00;;;;;;5073397;28;20918;-77
2022/12/26 09:19:16;;;;;;;5.70;4.40;;;11.50;1.00;;;;;;5071865;28;20636;-78
2022/12/26 09:21:45;;;;;;;5.50;4.30;;;11.40;1.00;;;;;;5071978;28;20570;-76
2022/12/26 09:24:14;;;;;;;6.70;4.40;;;11.40;1.00;;;;;;5072532;28;20440;-77
2022/12/26 09:26:41;;;;;;;5.87;4.20;;;11.50;1.00;;;;;;5073650;28;20542;-77
2022/12/26 09:29:09;;;;;;;6.67;4.77;;;11.40;1.00;;;;;;5073881;28;20445;-77
2022/12/26 09:31:36;;;;;;;7.00;5.10;;;11.50;1.00;;;;;;5071045;28;20433;-76
2022/12/26 09:34:04;;;;;;;6.83;4.50;;;11.60;1.00;;;;;;5074011;28;20529;-76
2022/12/26 09:36:36;;;;;;;7.83;5.10;;;11.70;1.00;;;;;;5070632;28;20476;-76
2022/12/26 09:39:04;;;;;;;9.20;5.03;;;11.70;1.00;;;;;;5070699;28;20940;-75
2022/12/26 09:41:57;;;;;;;6.10;4.87;;;11.70;1.00;;;;;;5070430;28;20472;-79
2022/12/26 09:44:30;;;;;;;5.73;4.67;;;11.80;1.00;;;;;;5069292;28;20478;-77
2022/12/26 09:47:10;;;;;;;6.70;5.17;;;11.80;1.00;;;;;;5064098;28;20495;-77
2022/12/26 09:49:50;;;;;;;5.63;4.77;;;11.80;1.00;;;;;;5069281;28;20420;-77
2022/12/26 09:52:22;;;;;;;6.27;4.90;;;11.90;1.00;;;;;;5074946;28;20432;-78
2022/12/26 09:54:54;;;;;;;7.50;5.37;;;11.90;1.00;;;;;;5072039;28;20590;-78
2022/12/26 09:57:27;;;;;;;7.90;5.13;;;11.90;1.00;;;;;;5074548;28;20459;-77
2022/12/26 10:00:03;;;;;;;6.90;5.10;;;11.90;1.00;;;;;;5074604;28;20463;-77
2022/12/26 10:02:30;;;;;;;6.20;4.00;;;12.00;1.00;;;;;;5073865;28;20481;-77
2022/12/26 10:04:59;;;;;;;6.43;4.20;;;12.00;1.00;;;;;;5070888;28;20425;-80
2022/12/26 10:07:33;;;;;;;5.57;4.10;;;12.00;1.00;;;;;;5072235;28;20475;-77
2022/12/26 10:10:10;;;;;;;6.83;3.90;;;12.00;1.00;;;;;;5072803;28;21121;-78
2022/12/26 10:12:52;;;;;;;4.73;3.43;;;12.00;1.00;;;;;;5073928;28;22221;-78
2022/12/26 10:15:31;;;;;;;4.70;3.37;;;11.90;1.00;;;;;;5073350;28;20452;-78
2022/12/26 10:18:22;;;;;;;5.43;3.67;;;11.90;1.00;;;;;;5073210;28;20517;-78
2022/12/26 10:21:08;;;;;;;5.50;3.43;;;11.90;1.00;;;;;;5072762;28;20453;-78
2022/12/26 10:23:38;;;;;;;4.77;3.03;;;12.00;1.00;;;;;;5075964;28;20552;-77
2022/12/26 10:26:10;;;;;;;4.60;3.37;;;11.90;1.00;;;;;;5072944;28;20596;-79
2022/12/26 10:28:42;;;;;;;4.83;3.60;;;12.00;1.00;;;;;;5075103;28;20942;-78
2022/12/26 10:31:17;;;;;;;4.80;3.43;;;12.00;1.00;;;;;;5068840;28;20550;-78
2022/12/26 10:33:48;;;;;;;14.93;4.47;;;12.10;1.00;;;;;;5074826;28;20455;-78
2022/12/26 10:36:26;;;;;;;7.53;4.10;;;12.10;1.00;;;;;;5071536;28;20432;-79
2022/12/26 10:38:58;;;;;;;4.47;3.10;;;12.10;1.00;;;;;;5074017;28;20482;-77
2022/12/26 10:41:27;;;;;;;6.83;3.30;;;12.00;1.00;;;;;;5077394;28;20417;-80
2022/12/26 10:43:55;;;;;;;5.07;3.80;;;11.90;1.00;;;;;;5074746;28;20425;-80
2022/12/26 10:47:01;;;;;;;5.60;4.30;;;11.90;1.00;;;;;;5074030;28;20533;-81
2022/12/26 10:49:28;;;;;;;4.80;3.63;;;11.80;1.00;;;;;;5070397;28;20498;-80
2022/12/26 10:51:59;;;;;;;5.90;3.30;;;11.70;1.00;;;;;;5075982;28;20541;-79
2022/12/26 10:54:31;;;;;;;5.97;3.20;;;11.70;1.00;;;;;;5082044;28;20482;-79
2022/12/26 10:57:00;;;;;;;4.37;3.30;;;11.60;1.00;;;;;;5081178;28;20415;-81
2022/12/26 10:59:43;;;;;;;4.90;3.33;;;11.60;1.00;;;;;;5075851;28;20521;-78
2022/12/26 11:02:24;;;;;;;4.93;3.17;;;11.60;1.00;;;;;;5073413;28;20451;-77
2022/12/26 11:04:59;;;;;;;4.63;3.53;;;11.50;1.00;;;;;;5073478;28;20478;-77
2022/12/26 11:07:35;;;;;;;6.50;3.10;;;11.60;1.00;;;;;;5077065;28;20411;-77
2022/12/26 11:10:06;;;;;;;5.27;3.90;;;11.60;1.00;;;;;;5078851;28;20495;-80
2022/12/26 11:12:42;;;;;;;5.57;3.50;;;11.60;1.00;;;;;;5077291;28;20440;-80
2022/12/26 11:15:20;;;;;;;6.10;3.47;;;11.60;1.00;;;;;;5078081;28;21179;-77
2022/12/26 11:17:55;;;;;;;4.53;3.30;;;11.60;1.00;;;;;;5078729;28;20456;-81
2022/12/26 11:20:27;;;;;;;5.10;3.53;;;11.60;1.00;;;;;;5082947;28;20458;-77
2022/12/26 11:23:18;;;;;;;4.40;2.90;;;11.50;1.00;;;;;;5077502;28;20418;-76
2022/12/26 11:25:57;;;;;;;4.93;3.30;;;11.50;1.00;;;;;;5078740;28;20497;-79
2022/12/26 11:28:30;;;;;;;4.00;2.73;;;11.50;1.00;;;;;;5076820;28;20444;-80
2022/12/26 11:31:00;;;;;;;4.53;2.77;;;11.40;1.00;;;;;;5079428;28;20439;-80
2022/12/26 11:33:42;;;;;;;4.90;3.33;;;11.40;1.00;;;;;;5079326;28;20551;-81
2022/12/26 11:36:17;;;;;;;5.20;3.33;;;11.40;1.00;;;;;;5076852;28;20463;-80
2022/12/26 11:38:58;;;;;;;5.10;2.97;;;11.40;1.00;;;;;;5077923;28;20471;-79
2022/12/26 11:41:40;;;;;;;5.27;4.30;;;11.40;1.00;;;;;;5081806;28;20479;-77
2022/12/26 11:44:22;;;;;;;5.00;3.10;;;11.40;1.00;;;;;;5077190;28;20406;-78
2022/12/26 11:46:56;;;;;;;4.43;3.10;;;11.30;1.00;;;;;;5076478;28;22428;-79
2022/12/26 11:49:30;;;;;;;4.43;2.80;;;11.30;1.00;;;;;;5077341;28;20431;-77
2022/12/26 11:51:59;;;;;;;6.73;5.00;;;11.30;1.00;;;;;;5083261;28;20420;-78
2022/12/26 11:54:36;;;;;;;5.20;3.50;;;11.40;1.00;;;;;;5078230;28;20542;-80
2022/12/26 11:57:27;;;;;;;3.97;2.90;;;11.40;1.00;;;;;;5077569;28;20483;-81
2022/12/26 12:00:18;;;;;;;5.63;3.40;;;11.40;1.00;;;;;;5079682;28;20419;-80
2022/12/26 12:02:47;;;;;;;6.60;4.10;;;11.40;1.00;;;;;;5082085;28;20458;-77
2022/12/26 12:05:37;;;;;;;4.87;3.37;;;11.40;1.00;;;;;;5088206;28;20404;-77
2022/12/26 12:08:30;;;;;;;4.43;2.80;;;11.50;1.00;;;;;;5074783;28;20888;-76
2022/12/26 12:11:19;;;;;;;5.00;2.90;;;11.60;1.00;;;;;;5071990;28;20460;-77
2022/12/26 12:14:03;;;;;;;4.90;3.43;;;11.50;1.00;;;;;;5079090;27;21347;-78
2022/12/26 12:16:59;;;;;;;4.80;3.37;;;11.50;1.00;;;;;;5071928;28;20513;-79
2022/12/26 12:19:45;;;;;;;4.40;3.40;;;11.50;1.00;;;;;;5056141;28;20520;-76
2022/12/26 12:22:46;;;;;;;5.70;4.20;;;11.50;1.00;;;;;;5055590;28;20521;-82
2022/12/26 12:25:46;;;;;;;4.77;3.20;;;11.50;1.00;;;;;;5047214;28;20512;-78
2022/12/26 12:28:36;;;;;;;4.70;3.30;;;11.50;1.00;;;;;;5054071;28;20411;-81
2022/12/26 12:31:16;;;;;;;6.10;3.43;;;11.60;1.00;;;;;;5061786;28;20473;-79
2022/12/26 12:33:55;;;;;;;5.00;3.50;;;11.60;1.00;;;;;;5058715;28;20514;-79
2022/12/26 12:36:36;;;;;;;5.03;3.70;;;11.60;1.00;;;;;;5057471;28;21253;-81
2022/12/26 12:39:17;;;;;;;5.00;3.23;;;11.50;1.00;;;;;;5059640;28;20398;-84
2022/12/26 12:42:09;;;;;;;5.57;3.63;;;11.50;1.00;;;;;;5057603;28;20475;-82
2022/12/26 12:45:06;;;;;;;5.83;4.37;;;11.50;1.00;;;;;;5061069;28;20417;-79
2022/12/26 12:47:56;;;;;;;5.40;3.90;;;11.50;1.00;;;;;;5064503;28;20542;-77
2022/12/26 12:50:35;;;;;;;5.50;3.50;;;11.50;1.00;;;;;;5056677;28;20464;-79
2022/12/26 12:53:17;;;;;;;6.43;4.10;;;11.50;1.00;;;;;;5059680;28;20510;-81
2022/12/26 12:56:15;;;;;;;5.40;3.67;;;11.60;1.00;;;;;;5065047;28;20583;-80
2022/12/26 12:58:47;;;;;;;6.13;4.17;;;11.70;1.00;;;;;;5057287;28;21346;-83
2022/12/26 13:01:18;;;;;;;5.40;4.20;;;11.80;1.00;;;;;;5061033;28;20423;-83
2022/12/26 13:03:53;;;;;;;7.43;4.60;;;11.90;1.00;;;;;;5062965;28;20429;-85
2022/12/26 13:06:25;;;;;;;6.33;3.73;;;11.90;1.00;;;;;;5047878;28;20481;-83
2022/12/26 13:08:57;;;;;;;5.50;3.97;;;11.80;1.00;;;;;;5060089;28;20429;-83
2022/12/26 13:11:29;;;;;;;4.97;3.50;;;11.70;1.00;;;;;;5065897;28;20448;-84
2022/12/26 13:14:01;;;;;;;6.07;3.70;;;11.70;1.00;;;;;;5061093;28;20506;-83
2022/12/26 13:16:32;;;;;;;6.73;4.43;;;11.70;1.00;;;;;;5057718;28;20469;-85
2022/12/26 13:19:05;;;;;;;6.83;4.50;;;11.70;1.00;;;;;;5061514;28;20421;-83
2022/12/26 13:21:36;;;;;;;5.83;3.90;;;11.70;1.00;;;;;;5059916;28;20464;-84
2022/12/26 13:24:25;;;;;;;4.30;3.07;;;11.70;1.00;;;;;;5060859;28;20445;-83
2022/12/26 13:26:59;;;;;;;4.97;3.70;;;11.70;1.00;;;;;;5057909;28;20535;-84
2022/12/26 13:29:39;;;;;;;5.70;4.27;;;11.70;1.00;;;;;;5058867;28;20946;-83
2022/12/26 13:32:20;;;;;;;5.70;3.60;;;11.80;1.00;;;;;;5061795;28;20409;-83
2022/12/26 13:34:56;;;;;;;5.40;3.53;;;11.80;1.00;;;;;;5061016;28;20472;-83
2022/12/26 13:37:55;;;;;;;5.53;4.03;;;11.70;1.00;;;;;;5058645;28;20445;-83
2022/12/26 13:40:29;;;;;;;5.70;3.53;;;11.80;1.00;;;;;;5055254;28;20453;-81
2022/12/26 13:45:57;;;;;;;4.60;3.30;;;11.70;1.00;;;;;;5062060;28;20432;-78
2022/12/26 13:48:58;;;;;;;5.40;3.90;;;11.60;1.00;;;;;;5065629;28;20492;-79
2022/12/26 13:51:52;;;;;;;6.50;4.20;;;11.50;1.00;;;;;;5063560;28;20431;-79
2022/12/26 13:54:26;;;;;;;9.13;4.50;;;11.50;1.00;;;;;;5034964;28;20467;-78
2022/12/26 13:57:20;;;;;;;5.67;4.63;;;11.40;1.00;;;;;;5047269;28;20431;-78
2022/12/26 14:00:18;;;;;;;5.50;4.50;;;11.20;1.00;;;;;;5062321;28;20977;-78
2022/12/26 14:03:26;;;;;;;5.30;3.87;;;11.20;1.00;;;;;;5046134;28;20462;-77
2022/12/26 14:06:12;;;;;;;5.60;4.10;;;11.10;1.00;;;;;;5056843;28;20554;-78
2022/12/26 14:09:03;;;;;;;6.50;4.47;;;11.10;1.00;;;;;;5053687;28;20476;-77
2022/12/26 14:11:50;;;;;;;4.80;3.80;;;11.00;1.00;;;;;;5051842;28;20484;-77
2022/12/26 14:14:26;;;;;;;5.97;5.10;;;10.90;1.00;;;;;;5052884;28;20447;-78
2022/12/26 14:17:04;;;;;;;6.70;4.43;;;11.00;1.00;;;;;;5053543;28;20456;-78
2022/12/26 14:19:42;;;;;;;5.20;4.40;;;11.00;1.00;;;;;;5053214;28;20495;-78
2022/12/26 14:22:15;;;;;;;6.47;5.77;;;11.10;1.00;;;;;;5052869;28;20428;-78
2022/12/26 14:24:56;;;;;;;5.90;5.10;;;11.10;1.00;;;;;;5053441;28;20484;-76
2022/12/26 14:27:36;;;;;;;6.37;5.00;;;11.10;1.00;;;;;;5053184;28;20475;-77
2022/12/26 14:30:26;;;;;;;6.83;5.27;;;11.00;1.00;;;;;;5056230;28;20562;-82
2022/12/26 14:33:24;;;;;;;7.50;5.87;;;11.00;1.00;;;;;;5057427;28;20460;-77
2022/12/26 14:36:04;;;;;;;10.83;5.17;;;10.90;1.00;;;;;;5056010;28;20472;-76
2022/12/26 14:38:46;;;;;;;5.90;4.40;;;10.80;1.00;;;;;;5052547;28;20481;-78
2022/12/26 14:44:10;;;;;;;5.83;4.53;;;10.60;1.00;;;;;;5051086;28;20433;-83
2022/12/26 14:46:59;;;;;;;5.47;4.57;;;10.60;1.00;;;;;;5053903;28;21525;-82
2022/12/26 14:49:38;;;;;;;8.30;6.10;;;10.50;1.00;;;;;;5054003;28;20460;-77
2022/12/26 14:52:39;;;;;;;6.70;5.40;;;10.40;1.00;;;;;;5045760;28;21241;-78
2022/12/26 14:55:45;;;;;;;6.67;5.00;;;10.40;1.00;;;;;;5051407;28;20601;-79
2022/12/26 14:58:43;;;;;;;7.70;4.90;;;10.20;1.00;;;;;;5051063;28;20551;-78
2022/12/26 15:01:49;;;;;;;7.53;5.97;;;10.30;1.00;;;;;;5018848;28;21151;-76
2022/12/26 15:04:32;;;;;;;6.37;4.70;;;10.30;1.00;;;;;;5047567;28;21043;-77
2022/12/26 15:07:28;;;;;;;9.10;6.17;;;10.30;1.00;;;;;;5051072;28;20459;-79
2022/12/26 15:10:37;;;;;;;6.63;5.33;;;10.40;1.00;;;;;;5055003;28;20433;-79
2022/12/26 15:13:39;;;;;;;8.10;5.97;;;10.50;1.00;;;;;;5022879;28;21062;-82
2022/12/26 15:16:38;;;;;;;5.60;4.50;;;10.50;1.00;;;;;;5059502;28;20473;-81
2022/12/26 15:19:37;;;;;;;6.97;4.80;;;10.50;1.00;;;;;;5054754;28;20460;-81
2022/12/26 15:22:50;;;;;;;6.70;5.30;;;10.60;1.00;;;;;;5057766;28;20422;-80
2022/12/26 15:25:56;;;;;;;5.70;4.23;;;10.60;1.00;;;;;;5021787;28;20404;-84
2022/12/26 15:28:47;;;;;;;6.47;4.50;;;10.60;1.00;;;;;;5029542;28;20475;-82
2022/12/26 15:31:41;;;;;;;6.60;4.90;;;10.60;1.00;;;;;;5062112;28;20413;-82
2022/12/26 15:34:46;;;;;;;7.30;4.87;;;10.60;1.00;;;;;;5054757;28;20458;-82
2022/12/26 15:38:00;;;;;;;6.27;4.63;;;10.50;1.00;;;;;;5024480;28;20424;-81
2022/12/26 15:40:29;;;;;;;5.90;4.13;;;10.50;1.00;;;;;;5053915;28;20440;-80
2022/12/26 15:43:29;;;;;;;6.80;4.80;;;10.40;1.00;;;;;;5059440;28;20490;-81
2022/12/26 15:46:05;;;;;;;7.47;4.43;;;10.30;1.00;;;;;;5058103;28;20444;-83
2022/12/26 15:48:49;;;;;;;5.63;4.40;;;10.20;1.00;;;;;;5060657;28;20457;-78
2022/12/26 15:51:29;;;;;;;9.80;6.63;;;10.10;1.00;;;;;;5056890;28;20428;-83
2022/12/26 15:54:18;;;;;;;7.83;5.30;;;10.10;1.00;;;;;;5052083;28;20480;-82
2022/12/26 15:57:06;;;;;;;6.60;5.07;;;10.10;1.00;;;;;;5062641;28;20463;-83
2022/12/26 16:00:07;;;;;;;7.90;5.93;;;10.00;1.00;;;;;;5061576;28;20449;-78
2022/12/26 16:02:48;;;;;;;7.17;5.40;;;10.00;1.00;;;;;;5072493;22;20479;-81
2022/12/26 16:06:00;;;;;;;7.93;5.77;;;10.00;1.00;;;;;;5181080;22;20425;-81
2022/12/26 16:09:02;;;;;;;6.67;5.17;;;9.90;1.00;;;;;;5073910;27;20459;-82
2022/12/26 16:11:31;;;;;;;6.60;5.20;;;9.90;1.00;;;;;;5057232;28;20425;-83
2022/12/26 16:14:02;;;;;;;8.50;5.30;;;9.80;1.00;;;;;;5087244;27;20475;-78
2022/12/26 16:16:37;;;;;;;6.50;5.40;;;9.80;1.00;;;;;;5083662;28;20623;-77
2022/12/26 16:19:23;;;;;;;6.57;5.20;;;9.80;1.00;;;;;;5066025;28;20459;-81
2022/12/26 16:24:44;;;;;;;6.40;5.20;;;9.70;1.00;;;;;;5092753;27;20459;-80
2022/12/26 16:27:24;;;;;;;5.90;4.20;;;9.70;1.00;;;;;;5088756;27;20570;-83
2022/12/26 16:29:58;;;;;;;6.03;4.50;;;9.70;1.00;;;;;;5075815;28;20471;-82
2022/12/26 16:32:31;;;;;;;5.20;3.37;;;9.70;1.00;;;;;;5086824;28;20419;-83
2022/12/26 16:34:59;;;;;;;4.53;3.60;;;9.70;1.00;;;;;;5085185;28;20439;-81
2022/12/26 16:37:29;;;;;;;4.87;3.53;;;9.70;1.00;;;;;;5082250;28;20463;-76
2022/12/26 16:40:21;;;;;;;4.77;4.13;;;9.80;1.00;;;;;;5086543;28;20424;-83
2022/12/26 16:43:02;;;;;;;4.03;2.83;;;9.90;1.00;;;;;;5084560;28;20537;-79
2022/12/26 16:45:36;;;;;;;4.60;2.70;;;9.90;1.00;;;;;;5080940;28;21005;-83
2022/12/26 16:48:09;;;;;;;5.47;3.00;;;9.90;1.00;;;;;;5090642;28;20419;-82
2022/12/26 16:50:48;;;;;;;3.73;2.50;;;9.90;1.00;;;;;;5086546;28;20430;-79
2022/12/26 16:53:23;;;;;;;4.10;2.50;;;9.90;1.00;;;;;;5091938;28;20417;-82
2022/12/26 16:56:01;;;;;;;3.30;2.10;;;9.90;1.00;;;;;;5089272;28;20556;-81
2022/12/26 16:58:40;;;;;;;4.43;2.77;;;9.90;1.00;;;;;;5086931;27;20491;-81
2022/12/26 17:01:10;;;;;;;8.20;2.50;;;9.90;1.00;;;;;;5152192;22;20450;-78
2022/12/26 17:03:49;;;;;;;5.20;2.80;;;9.90;1.00;;;;;;5070706;28;20415;-78
2022/12/26 17:06:26;;;;;;;4.17;2.73;;;9.90;1.00;;;;;;5062704;28;20439;-76
2022/12/26 17:08:56;;;;;;;4.60;2.90;;;9.90;1.00;;;;;;5051814;28;20458;-81
2022/12/26 17:11:31;;;;;;;5.27;3.50;;;10.00;1.00;;;;;;5093652;28;20499;-80
2022/12/26 17:14:23;;;;;;;4.73;3.20;;;10.00;1.00;;;;;;5086176;28;20476;-80
2022/12/26 17:17:25;;;;;;;5.03;3.90;;;10.10;1.00;;;;;;5073382;28;20467;-80
2022/12/26 17:20:18;;;;;;;4.60;3.40;;;10.10;1.00;;;;;;5081837;28;20432;-82
2022/12/26 17:22:47;;;;;;;4.53;3.23;;;10.10;1.00;;;;;;5082378;28;20474;-79